Time;durP1;ratioP1;P1;durP2;ratioP2;P2;SDS_P1;SDS_P2;PMS_P1;PMS_P2;Temp;Humidity;BMP_temperature;BMP_pressure;BME280_temperature;BME280_humidity;BME280_pressure;Samples;Min_cycle;Max_cycle;Signal;HPM_P1;HPM_P2
2023/05/17 00:02:24;;;;;;;12.40;11.70;;;;;;;;;;4998949;28;20030;-54
2023/05/17 00:04:49;;;;;;;12.35;11.65;;;;;;;;;;4994367;28;20057;-50
2023/05/17 00:07:14;;;;;;;11.75;11.05;;;;;;;;;;4992485;28;20026;-52
2023/05/17 00:09:40;;;;;;;11.68;10.98;;;;;;;;;;4996936;28;20034;-54
2023/05/17 00:12:05;;;;;;;11.75;11.05;;;;;;;;;;4997420;28;20039;-52
2023/05/17 00:14:31;;;;;;;11.48;10.77;;;;;;;;;;4997900;28;20135;-51
2023/05/17 00:16:56;;;;;;;12.15;11.45;;;;;;;;;;4993238;28;20047;-51
2023/05/17 00:19:21;;;;;;;12.35;11.65;;;;;;;;;;4999007;28;20044;-54
2023/05/17 00:21:47;;;;;;;11.80;11.10;;;;;;;;;;4991112;28;20072;-54
2023/05/17 00:24:12;;;;;;;12.55;11.65;;;;;;;;;;4996075;28;20798;-54
2023/05/17 00:26:37;;;;;;;11.68;10.98;;;;;;;;;;4994359;28;20121;-54
2023/05/17 00:29:03;;;;;;;11.77;11.07;;;;;;;;;;4995993;28;20041;-54
2023/05/17 00:31:28;;;;;;;11.80;11.10;;;;;;;;;;4997013;28;20703;-53
2023/05/17 00:33:54;;;;;;;11.65;10.95;;;;;;;;;;4995457;28;20658;-54
2023/05/17 00:36:19;;;;;;;12.68;11.95;;;;;;;;;;4993640;28;20575;-55
2023/05/17 00:38:45;;;;;;;12.55;11.75;;;;;;;;;;4991409;28;20034;-52
2023/05/17 00:41:11;;;;;;;12.57;11.77;;;;;;;;;;4993551;28;20367;-54
2023/05/17 00:43:37;;;;;;;13.25;12.45;;;;;;;;;;4995346;28;20156;-52
2023/05/17 00:46:02;;;;;;;13.70;12.90;;;;;;;;;;4994337;28;20157;-52
2023/05/17 00:48:28;;;;;;;13.68;12.88;;;;;;;;;;4995977;28;20030;-54
2023/05/17 00:50:55;;;;;;;13.18;12.40;;;;;;;;;;4995329;28;20403;-54
2023/05/17 00:53:20;;;;;;;12.23;11.52;;;;;;;;;;4994241;28;20031;-55
2023/05/17 00:55:46;;;;;;;13.43;12.63;;;;;;;;;;4997385;28;20095;-54
2023/05/17 00:58:12;;;;;;;14.73;13.82;;;;;;;;;;4994789;28;20633;-54
2023/05/17 01:00:38;;;;;;;16.58;15.57;;;;;;;;;;4997953;28;20034;-55
2023/05/17 01:03:03;;;;;;;15.07;14.23;;;;;;;;;;4993766;28;20037;-54
2023/05/17 01:05:29;;;;;;;14.27;13.48;;;;;;;;;;4994689;28;20037;-51
2023/05/17 01:07:55;;;;;;;14.55;13.75;;;;;;;;;;4995483;28;20088;-53
2023/05/17 01:10:29;;;;;;;15.35;14.48;;;;;;;;;;4997535;28;20054;-54
2023/05/17 01:13:17;;;;;;;14.50;13.70;;;;;;;;;;4998293;28;20033;-52
2023/05/17 01:15:46;;;;;;;15.32;14.43;;;;;;;;;;4993693;28;20070;-52
2023/05/17 01:18:20;;;;;;;15.77;14.88;;;;;;;;;;4993460;28;20041;-52
2023/05/17 01:20:47;;;;;;;15.02;14.18;;;;;;;;;;4995681;28;20042;-52
2023/05/17 01:23:55;;;;;;;16.25;15.30;;;;;;;;;;4996031;28;20942;-51
2023/05/17 01:26:37;;;;;;;15.68;14.77;;;;;;;;;;4981476;28;20038;-52
2023/05/17 01:29:06;;;;;;;16.20;15.30;;;;;;;;;;4992377;28;20021;-52
2023/05/17 01:31:32;;;;;;;16.70;15.77;;;;;;;;;;4994577;28;20037;-50
2023/05/17 01:33:57;;;;;;;17.17;16.13;;;;;;;;;;4997422;28;20030;-53
2023/05/17 01:36:25;;;;;;;17.17;16.17;;;;;;;;;;4991265;28;20038;-53
2023/05/17 01:38:50;;;;;;;17.00;16.02;;;;;;;;;;4991652;28;20030;-53
2023/05/17 01:41:24;;;;;;;17.60;16.60;;;;;;;;;;4995661;28;20502;-53
2023/05/17 01:44:01;;;;;;;17.30;16.30;;;;;;;;;;4996135;28;20042;-52
2023/05/17 01:46:41;;;;;;;17.55;16.55;;;;;;;;;;4995236;28;20034;-51
2023/05/17 01:49:15;;;;;;;17.70;16.70;;;;;;;;;;4993956;28;20089;-53
2023/05/17 01:52:16;;;;;;;16.98;16.05;;;;;;;;;;4995246;28;20034;-52
2023/05/17 01:54:55;;;;;;;18.08;16.77;;;;;;;;;;4963994;28;20041;-53
2023/05/17 01:57:27;;;;;;;16.60;15.60;;;;;;;;;;4995797;28;20041;-53
2023/05/17 01:59:54;;;;;;;16.90;15.90;;;;;;;;;;4994533;28;20034;-50
2023/05/17 02:02:21;;;;;;;17.63;16.63;;;;;;;;;;4991774;28;20645;-52
2023/05/17 02:04:47;;;;;;;17.80;16.80;;;;;;;;;;4994643;28;20026;-50
2023/05/17 02:07:12;;;;;;;17.40;16.45;;;;;;;;;;4995461;28;20088;-50
2023/05/17 02:09:37;;;;;;;16.02;15.13;;;;;;;;;;4977643;28;20032;-54
2023/05/17 02:12:03;;;;;;;16.25;15.35;;;;;;;;;;4995797;28;20056;-51
2023/05/17 02:14:28;;;;;;;15.68;14.77;;;;;;;;;;4995972;28;20192;-54
2023/05/17 02:16:54;;;;;;;17.20;16.23;;;;;;;;;;4996948;28;20561;-50
2023/05/17 02:19:19;;;;;;;15.80;14.90;;;;;;;;;;4999988;28;20132;-53
2023/05/17 02:21:44;;;;;;;15.32;14.32;;;;;;;;;;4998796;28;20077;-52
2023/05/17 02:24:10;;;;;;;13.20;12.40;;;;;;;;;;4999642;28;20045;-50
2023/05/17 02:26:35;;;;;;;13.73;12.93;;;;;;;;;;4987046;28;20037;-53
2023/05/17 02:29:00;;;;;;;11.75;11.05;;;;;;;;;;4995044;28;20034;-52
2023/05/17 02:31:26;;;;;;;11.63;10.90;;;;;;;;;;4999842;28;20030;-53
2023/05/17 02:33:52;;;;;;;11.85;11.15;;;;;;;;;;4998153;28;20688;-51
2023/05/17 02:36:17;;;;;;;11.30;10.60;;;;;;;;;;4998263;28;20029;-49
2023/05/17 02:38:43;;;;;;;11.38;10.68;;;;;;;;;;4995366;28;20107;-61
2023/05/17 02:41:08;;;;;;;12.07;11.38;;;;;;;;;;4998012;28;20626;-61
2023/05/17 02:43:33;;;;;;;10.82;10.13;;;;;;;;;;4997081;28;20045;-53
2023/05/17 02:45:59;;;;;;;11.55;10.85;;;;;;;;;;4998505;28;20132;-61
2023/05/17 02:48:24;;;;;;;11.10;10.40;;;;;;;;;;4999235;28;20034;-61
2023/05/17 02:50:49;;;;;;;11.70;11.00;;;;;;;;;;4996797;28;20463;-61
2023/05/17 02:53:15;;;;;;;12.43;11.70;;;;;;;;;;4995123;28;20843;-61
2023/05/17 02:55:40;;;;;;;10.68;9.98;;;;;;;;;;4997161;28;20109;-61
2023/05/17 02:58:05;;;;;;;11.05;10.35;;;;;;;;;;4997075;28;20064;-53
2023/05/17 03:00:31;;;;;;;10.82;10.13;;;;;;;;;;4999524;28;20038;-50
2023/05/17 03:02:57;;;;;;;10.23;9.63;;;;;;;;;;4997222;28;20061;-53
2023/05/17 03:05:22;;;;;;;10.30;9.70;;;;;;;;;;4996073;28;20475;-52
2023/05/17 03:07:47;;;;;;;11.52;10.82;;;;;;;;;;4999503;28;20054;-52
2023/05/17 03:10:13;;;;;;;10.02;9.43;;;;;;;;;;4998927;28;20058;-53
2023/05/17 03:12:38;;;;;;;9.90;9.30;;;;;;;;;;4996625;28;20033;-55
2023/05/17 03:15:04;;;;;;;9.95;9.15;;;;;;;;;;4999858;28;20383;-51
2023/05/17 03:17:30;;;;;;;9.32;8.73;;;;;;;;;;4996197;28;20124;-61
2023/05/17 03:19:55;;;;;;;10.63;9.77;;;;;;;;;;4997719;28;20097;-61
2023/05/17 03:22:21;;;;;;;9.00;8.40;;;;;;;;;;4997468;28;20057;-61
2023/05/17 03:24:46;;;;;;;9.60;9.00;;;;;;;;;;5001194;28;20036;-61
2023/05/17 03:27:11;;;;;;;9.25;8.65;;;;;;;;;;4994864;28;20498;-61
2023/05/17 03:29:37;;;;;;;10.35;9.73;;;;;;;;;;4999264;28;20034;-61
2023/05/17 03:32:02;;;;;;;10.20;9.60;;;;;;;;;;5001280;28;20030;-61
2023/05/17 03:34:27;;;;;;;9.90;9.30;;;;;;;;;;4999370;28;20034;-61
2023/05/17 03:36:53;;;;;;;10.32;9.63;;;;;;;;;;4993754;28;20074;-61
2023/05/17 03:39:18;;;;;;;8.90;8.30;;;;;;;;;;4995596;28;20038;-61
2023/05/17 03:41:44;;;;;;;14.02;9.55;;;;;;;;;;4998802;28;20034;-61
2023/05/17 03:44:09;;;;;;;8.55;8.05;;;;;;;;;;5000597;28;20026;-61
2023/05/17 03:46:34;;;;;;;10.07;9.38;;;;;;;;;;4997667;28;20507;-53
2023/05/17 03:49:00;;;;;;;8.68;8.07;;;;;;;;;;4990440;28;20030;-61
2023/05/17 03:51:25;;;;;;;8.88;8.27;;;;;;;;;;4996305;28;20029;-61
2023/05/17 03:53:57;;;;;;;9.98;9.27;;;;;;;;;;4995218;28;20037;-61
2023/05/17 03:56:22;;;;;;;9.27;8.68;;;;;;;;;;4996655;28;20657;-61
2023/05/17 03:58:47;;;;;;;8.50;8.00;;;;;;;;;;4994881;28;20053;-61
2023/05/17 04:01:13;;;;;;;9.43;8.73;;;;;;;;;;4997577;28;20049;-61
2023/05/17 04:03:38;;;;;;;8.65;8.13;;;;;;;;;;4996790;28;20033;-61
2023/05/17 04:06:07;;;;;;;8.38;7.80;;;;;;;;;;4995990;28;20091;-52
2023/05/17 04:08:35;;;;;;;9.05;8.45;;;;;;;;;;4996353;28;20097;-51
2023/05/17 04:11:09;;;;;;;9.38;8.77;;;;;;;;;;4992410;28;20137;-61
2023/05/17 04:13:36;;;;;;;9.45;8.75;;;;;;;;;;4991878;28;20490;-52
2023/05/17 04:16:01;;;;;;;8.77;7.90;;;;;;;;;;4996453;28;20049;-52
2023/05/17 04:18:27;;;;;;;9.45;8.80;;;;;;;;;;4995094;28;20100;-61
2023/05/17 04:20:54;;;;;;;9.55;8.95;;;;;;;;;;4994580;28;20042;-61
2023/05/17 04:23:19;;;;;;;9.45;8.85;;;;;;;;;;4995076;28;20033;-51
2023/05/17 04:25:45;;;;;;;9.20;8.60;;;;;;;;;;4993768;28;20033;-51
2023/05/17 04:28:11;;;;;;;8.77;8.18;;;;;;;;;;4995806;28;20091;-49
2023/05/17 04:30:41;;;;;;;8.95;8.20;;;;;;;;;;4996697;28;20026;-51
2023/05/17 04:33:07;;;;;;;9.20;8.60;;;;;;;;;;4997983;28;20101;-61
2023/05/17 04:35:32;;;;;;;9.38;8.77;;;;;;;;;;4996104;28;20241;-61
2023/05/17 04:37:57;;;;;;;9.57;8.98;;;;;;;;;;4992600;28;20417;-61
2023/05/17 04:40:23;;;;;;;9.10;8.50;;;;;;;;;;4997455;28;20034;-61
2023/05/17 04:42:49;;;;;;;9.77;9.18;;;;;;;;;;4995214;28;20542;-61
2023/05/17 04:45:15;;;;;;;8.18;7.68;;;;;;;;;;4993063;28;20034;-61
2023/05/17 04:47:40;;;;;;;9.48;8.88;;;;;;;;;;4995651;28;20702;-52
2023/05/17 04:50:06;;;;;;;8.27;7.78;;;;;;;;;;4993447;28;20034;-61
2023/05/17 04:52:31;;;;;;;8.93;8.27;;;;;;;;;;4995654;28;20522;-48
2023/05/17 04:54:57;;;;;;;9.40;8.75;;;;;;;;;;4997849;28;20064;-61
2023/05/17 04:57:22;;;;;;;9.45;8.85;;;;;;;;;;4997313;28;20029;-50
2023/05/17 04:59:47;;;;;;;8.52;7.93;;;;;;;;;;4994471;28;20579;-52
2023/05/17 05:02:13;;;;;;;9.25;8.52;;;;;;;;;;4980479;28;20594;-52
2023/05/17 05:04:38;;;;;;;9.55;8.82;;;;;;;;;;4994465;28;20872;-61
2023/05/17 05:07:04;;;;;;;8.82;8.23;;;;;;;;;;4990784;28;20034;-51
2023/05/17 05:09:29;;;;;;;9.35;8.75;;;;;;;;;;4998075;28;20480;-54
2023/05/17 05:11:55;;;;;;;9.05;8.45;;;;;;;;;;4993604;28;20092;-61
2023/05/17 05:14:20;;;;;;;8.73;8.13;;;;;;;;;;4996304;28;20139;-61
2023/05/17 05:16:46;;;;;;;9.60;8.93;;;;;;;;;;4980963;28;20115;-61
2023/05/17 05:19:11;;;;;;;8.73;8.13;;;;;;;;;;4999552;28;20076;-60
2023/05/17 05:21:36;;;;;;;8.73;8.20;;;;;;;;;;4995313;28;20049;-61
2023/05/17 05:24:03;;;;;;;8.65;8.05;;;;;;;;;;4993662;28;20030;-52
2023/05/17 05:26:28;;;;;;;10.00;9.40;;;;;;;;;;4995279;28;20419;-51
2023/05/17 05:28:54;;;;;;;9.85;9.25;;;;;;;;;;4998160;28;20129;-53
2023/05/17 05:31:19;;;;;;;10.07;9.45;;;;;;;;;;4996548;28;20156;-52
2023/05/17 05:33:44;;;;;;;8.95;8.35;;;;;;;;;;4995886;28;20117;-61
2023/05/17 05:36:10;;;;;;;9.30;8.70;;;;;;;;;;4991753;28;20045;-61
2023/05/17 05:38:36;;;;;;;10.45;9.75;;;;;;;;;;4993854;28;20037;-60
2023/05/17 05:41:01;;;;;;;9.80;9.20;;;;;;;;;;4979984;28;20456;-52
2023/05/17 05:43:26;;;;;;;10.98;10.27;;;;;;;;;;4998862;28;20037;-53
2023/05/17 05:45:52;;;;;;;10.88;10.18;;;;;;;;;;4995498;28;20698;-53
2023/05/17 05:48:17;;;;;;;10.90;10.20;;;;;;;;;;4994707;28;20060;-49
2023/05/17 05:50:43;;;;;;;10.63;10.00;;;;;;;;;;4998260;28;20467;-53
2023/05/17 05:53:09;;;;;;;9.77;9.18;;;;;;;;;;5001354;28;20041;-61
2023/05/17 05:55:35;;;;;;;10.18;9.50;;;;;;;;;;4998376;28;20554;-61
2023/05/17 05:58:00;;;;;;;9.35;8.75;;;;;;;;;;4997499;28;20117;-49
2023/05/17 06:00:25;;;;;;;10.25;9.57;;;;;;;;;;4998652;28;20054;-50
2023/05/17 06:02:52;;;;;;;10.10;9.48;;;;;;;;;;4998334;28;20038;-53
2023/05/17 06:05:18;;;;;;;10.15;9.55;;;;;;;;;;5000082;28;20030;-53
2023/05/17 06:07:43;;;;;;;10.93;10.13;;;;;;;;;;4997878;28;20143;-52
2023/05/17 06:10:09;;;;;;;11.23;10.52;;;;;;;;;;4999218;28;20044;-50
2023/05/17 06:12:34;;;;;;;11.10;10.30;;;;;;;;;;4999925;28;20617;-49
2023/05/17 06:15:00;;;;;;;11.38;10.68;;;;;;;;;;4999907;28;20424;-52
2023/05/17 06:17:25;;;;;;;11.43;10.73;;;;;;;;;;5001685;28;20037;-49
2023/05/17 06:19:51;;;;;;;11.77;10.93;;;;;;;;;;4998601;28;20515;-50
2023/05/17 06:22:16;;;;;;;10.70;10.00;;;;;;;;;;4999469;28;20505;-50
2023/05/17 06:24:42;;;;;;;11.23;10.52;;;;;;;;;;4998901;28;20050;-52
2023/05/17 06:27:07;;;;;;;11.18;10.40;;;;;;;;;;4998348;28;20065;-50
2023/05/17 06:29:33;;;;;;;12.52;11.48;;;;;;;;;;4998180;28;20088;-53
2023/05/17 06:31:58;;;;;;;11.18;10.48;;;;;;;;;;4999874;28;20665;-52
2023/05/17 06:34:24;;;;;;;12.55;11.75;;;;;;;;;;4998898;28;20088;-53
2023/05/17 06:36:50;;;;;;;12.25;11.45;;;;;;;;;;4996624;28;20037;-52
2023/05/17 06:39:15;;;;;;;12.95;12.15;;;;;;;;;;5000986;28;20041;-54
2023/05/17 06:41:40;;;;;;;12.77;11.98;;;;;;;;;;4999013;28;20053;-51
2023/05/17 06:44:06;;;;;;;11.90;11.20;;;;;;;;;;4998250;28;20049;-53
2023/05/17 06:46:31;;;;;;;12.98;11.82;;;;;;;;;;4997600;28;20029;-52
2023/05/17 06:48:57;;;;;;;11.73;10.90;;;;;;;;;;4996500;28;20065;-52
2023/05/17 06:51:22;;;;;;;12.65;11.85;;;;;;;;;;4999998;28;20099;-49
2023/05/17 06:53:47;;;;;;;12.00;11.20;;;;;;;;;;4982606;28;20030;-52
2023/05/17 06:56:13;;;;;;;13.65;12.27;;;;;;;;;;4998030;28;20045;-50
2023/05/17 06:58:38;;;;;;;11.35;10.65;;;;;;;;;;4995407;28;20113;-52
2023/05/17 07:01:04;;;;;;;12.77;11.98;;;;;;;;;;4995752;28;20173;-53
2023/05/17 07:03:30;;;;;;;11.90;11.20;;;;;;;;;;4995645;28;20104;-54
2023/05/17 07:05:55;;;;;;;13.48;12.57;;;;;;;;;;4998846;28;20077;-55
2023/05/17 07:08:20;;;;;;;13.32;12.20;;;;;;;;;;5002613;28;20037;-51
2023/05/17 07:10:46;;;;;;;14.65;13.70;;;;;;;;;;4999019;28;20037;-53
2023/05/17 07:13:11;;;;;;;11.85;11.15;;;;;;;;;;4995779;28;20065;-53
2023/05/17 07:15:37;;;;;;;12.38;11.68;;;;;;;;;;4997537;28;20605;-51
2023/05/17 07:18:03;;;;;;;13.63;12.82;;;;;;;;;;4994549;28;20038;-52
2023/05/17 07:20:28;;;;;;;14.98;14.05;;;;;;;;;;4995730;28;20034;-51
2023/05/17 07:22:53;;;;;;;13.48;12.57;;;;;;;;;;4996054;28;20505;-51
2023/05/17 07:25:20;;;;;;;13.15;12.35;;;;;;;;;;4999544;28;20029;-52
2023/05/17 07:27:45;;;;;;;12.63;11.85;;;;;;;;;;4998392;28;20080;-50
2023/05/17 07:30:11;;;;;;;11.98;11.27;;;;;;;;;;4981000;28;20124;-52
2023/05/17 07:32:36;;;;;;;12.70;12.00;;;;;;;;;;4997678;28;20180;-53
2023/05/17 07:35:02;;;;;;;14.05;13.25;;;;;;;;;;4996262;28;20045;-54
2023/05/17 07:37:27;;;;;;;15.30;14.40;;;;;;;;;;4999189;28;20025;-54
2023/05/17 07:39:53;;;;;;;14.45;13.65;;;;;;;;;;4996013;28;20462;-57
2023/05/17 07:42:18;;;;;;;14.50;13.70;;;;;;;;;;4995603;28;20743;-55
2023/05/17 07:44:43;;;;;;;16.27;15.38;;;;;;;;;;4997558;28;20364;-55
2023/05/17 07:47:09;;;;;;;16.10;15.10;;;;;;;;;;4990578;28;20041;-55
2023/05/17 07:49:34;;;;;;;14.57;13.77;;;;;;;;;;4996442;28;20033;-53
2023/05/17 07:52:01;;;;;;;15.30;14.40;;;;;;;;;;4995132;28;20041;-54
2023/05/17 07:54:27;;;;;;;15.43;14.52;;;;;;;;;;4994605;28;20904;-53
2023/05/17 07:56:54;;;;;;;14.93;14.02;;;;;;;;;;4994795;28;20194;-52
2023/05/17 07:59:22;;;;;;;14.98;14.07;;;;;;;;;;4990355;28;20096;-54
2023/05/17 08:01:48;;;;;;;14.60;13.80;;;;;;;;;;4992959;28;20042;-55
2023/05/17 08:04:14;;;;;;;16.20;15.20;;;;;;;;;;4998399;28;20038;-53
2023/05/17 08:06:40;;;;;;;14.95;14.02;;;;;;;;;;4992971;28;20068;-55
2023/05/17 08:09:06;;;;;;;15.48;14.60;;;;;;;;;;4994342;28;20060;-52
2023/05/17 08:11:33;;;;;;;14.00;13.20;;;;;;;;;;4977707;28;20472;-51
2023/05/17 08:13:58;;;;;;;17.05;15.95;;;;;;;;;;4996267;28;20503;-51
2023/05/17 08:16:24;;;;;;;14.90;14.05;;;;;;;;;;4994537;28;20049;-52
2023/05/17 08:18:49;;;;;;;14.55;13.57;;;;;;;;;;4989712;28;20034;-52
2023/05/17 08:21:14;;;;;;;11.65;10.95;;;;;;;;;;4993285;28;20068;-54
2023/05/17 08:23:40;;;;;;;14.93;14.02;;;;;;;;;;4992902;28;20470;-51
2023/05/17 08:26:06;;;;;;;13.15;12.35;;;;;;;;;;4994700;28;20585;-54
2023/05/17 08:28:31;;;;;;;12.73;11.98;;;;;;;;;;4995113;28;20038;-53
2023/05/17 08:30:57;;;;;;;13.68;12.77;;;;;;;;;;4994792;28;20045;-51
2023/05/17 08:33:24;;;;;;;12.00;11.30;;;;;;;;;;4992387;28;20065;-54
2023/05/17 08:35:51;;;;;;;11.57;10.85;;;;;;;;;;4994554;28;20038;-54
2023/05/17 08:38:17;;;;;;;11.00;10.30;;;;;;;;;;4998753;28;20037;-52
2023/05/17 08:40:42;;;;;;;13.10;12.10;;;;;;;;;;4995042;28;20033;-53
2023/05/17 08:43:11;;;;;;;13.02;12.23;;;;;;;;;;5000699;28;20497;-53
2023/05/17 08:45:37;;;;;;;12.73;11.93;;;;;;;;;;4995809;28;20116;-51
2023/05/17 08:48:04;;;;;;;13.38;12.57;;;;;;;;;;4995403;28;20056;-51
2023/05/17 08:50:32;;;;;;;14.00;13.10;;;;;;;;;;4995400;28;20034;-54
2023/05/17 08:52:58;;;;;;;15.20;14.30;;;;;;;;;;4996572;28;20080;-56
2023/05/17 08:55:26;;;;;;;14.48;13.57;;;;;;;;;;4995744;28;20034;-52
2023/05/17 08:57:53;;;;;;;15.32;14.43;;;;;;;;;;4992177;28;20676;-52
2023/05/17 09:00:20;;;;;;;15.23;14.32;;;;;;;;;;4993866;28;20089;-55
2023/05/17 09:02:47;;;;;;;15.15;14.25;;;;;;;;;;4994023;28;20108;-56
2023/05/17 09:05:12;;;;;;;14.65;13.82;;;;;;;;;;4997430;28;20058;-53
2023/05/17 09:07:38;;;;;;;15.57;14.68;;;;;;;;;;4994035;28;20030;-55
2023/05/17 09:10:04;;;;;;;16.02;15.02;;;;;;;;;;4979665;28;20299;-55
2023/05/17 09:12:34;;;;;;;15.65;14.43;;;;;;;;;;4997024;28;20052;-55
2023/05/17 09:15:13;;;;;;;14.25;13.45;;;;;;;;;;4996312;28;20049;-54
2023/05/17 09:17:39;;;;;;;14.15;13.35;;;;;;;;;;4996700;28;20030;-55
2023/05/17 09:20:06;;;;;;;15.35;14.45;;;;;;;;;;4995194;28;20065;-54
2023/05/17 09:22:31;;;;;;;14.30;13.50;;;;;;;;;;4996508;28;20748;-54
2023/05/17 09:25:01;;;;;;;14.95;14.05;;;;;;;;;;5001181;28;20034;-54
2023/05/17 09:27:30;;;;;;;15.52;14.40;;;;;;;;;;5004617;28;20037;-55
2023/05/17 09:29:56;;;;;;;15.27;14.38;;;;;;;;;;5003312;28;20492;-54
2023/05/17 09:32:21;;;;;;;14.48;13.57;;;;;;;;;;4999529;28;20033;-55
2023/05/17 09:34:47;;;;;;;13.73;12.93;;;;;;;;;;4998523;28;20037;-53
2023/05/17 09:37:14;;;;;;;15.02;14.13;;;;;;;;;;4999843;28;20025;-53
2023/05/17 09:39:40;;;;;;;14.50;13.70;;;;;;;;;;5002496;28;20041;-55
2023/05/17 09:42:06;;;;;;;14.38;13.48;;;;;;;;;;5001958;28;20475;-54
2023/05/17 09:44:56;;;;;;;14.05;13.25;;;;;;;;;;4998786;28;20096;-55
2023/05/17 09:47:33;;;;;;;13.75;12.95;;;;;;;;;;5000989;28;20087;-52
2023/05/17 09:50:02;;;;;;;14.52;13.73;;;;;;;;;;4998563;28;20044;-54
2023/05/17 09:52:30;;;;;;;15.27;14.38;;;;;;;;;;5004288;28;20042;-52
2023/05/17 09:54:59;;;;;;;14.15;13.13;;;;;;;;;;4998501;28;20494;-54
2023/05/17 09:57:27;;;;;;;15.10;14.23;;;;;;;;;;4999635;28;20470;-54
2023/05/17 09:59:55;;;;;;;14.40;13.60;;;;;;;;;;5003048;28;20073;-55
2023/05/17 10:02:23;;;;;;;15.48;14.57;;;;;;;;;;5005502;28;20038;-55
2023/05/17 10:04:50;;;;;;;16.25;15.35;;;;;;;;;;5002196;28;20038;-54
2023/05/17 10:07:18;;;;;;;15.63;14.73;;;;;;;;;;5001328;28;20042;-53
2023/05/17 10:09:45;;;;;;;16.08;14.63;;;;;;;;;;5001688;28;20068;-50
2023/05/17 10:12:15;;;;;;;15.23;14.32;;;;;;;;;;5001750;28;20535;-50
2023/05/17 10:14:42;;;;;;;15.07;14.17;;;;;;;;;;5003224;28;20029;-52
2023/05/17 10:17:09;;;;;;;17.17;16.17;;;;;;;;;;5001153;28;20048;-54
2023/05/17 10:19:35;;;;;;;15.00;14.10;;;;;;;;;;4994404;28;20052;-52
2023/05/17 10:22:01;;;;;;;16.52;15.43;;;;;;;;;;4997902;28;20038;-52
2023/05/17 10:24:29;;;;;;;14.52;13.73;;;;;;;;;;5001778;28;20029;-55
2023/05/17 10:26:56;;;;;;;19.77;13.68;;;;;;;;;;4997058;28;20501;-54
2023/05/17 10:29:22;;;;;;;15.48;14.57;;;;;;;;;;5002531;28;20068;-52
2023/05/17 10:31:49;;;;;;;13.80;13.00;;;;;;;;;;5000964;28;20038;-55
2023/05/17 10:34:16;;;;;;;13.90;13.10;;;;;;;;;;5002838;28;20095;-51
2023/05/17 10:36:45;;;;;;;14.77;13.90;;;;;;;;;;4998515;28;20034;-54
2023/05/17 10:39:11;;;;;;;14.10;13.27;;;;;;;;;;4998422;28;20104;-54
2023/05/17 10:41:41;;;;;;;14.90;14.00;;;;;;;;;;5000433;28;20046;-51
2023/05/17 10:44:11;;;;;;;13.88;12.85;;;;;;;;;;4995279;28;20434;-49
2023/05/17 10:46:36;;;;;;;14.35;13.50;;;;;;;;;;4999453;28;20065;-55
2023/05/17 10:49:02;;;;;;;13.93;13.13;;;;;;;;;;4996207;28;20030;-54
2023/05/17 10:51:32;;;;;;;14.15;13.20;;;;;;;;;;4986510;28;20037;-54
2023/05/17 10:54:06;;;;;;;14.27;12.95;;;;;;;;;;4994502;28;20431;-54
2023/05/17 10:56:33;;;;;;;14.55;13.75;;;;;;;;;;4995072;28;20349;-55
2023/05/17 10:59:25;;;;;;;16.27;15.38;;;;;;;;;;4996559;28;20031;-53
2023/05/17 11:02:04;;;;;;;14.07;13.23;;;;;;;;;;4996914;28;20141;-52
2023/05/17 11:04:40;;;;;;;14.63;13.73;;;;;;;;;;4999393;28;20440;-61
2023/05/17 11:07:21;;;;;;;14.68;13.88;;;;;;;;;;4996890;28;20076;-61
2023/05/17 11:10:07;;;;;;;14.13;13.32;;;;;;;;;;4996852;28;20061;-61
2023/05/17 11:12:44;;;;;;;13.73;12.93;;;;;;;;;;4998948;28;20064;-53
2023/05/17 11:15:15;;;;;;;13.80;13.00;;;;;;;;;;4994520;28;20034;-54
2023/05/17 11:17:43;;;;;;;13.98;13.18;;;;;;;;;;4999022;28;20037;-54
2023/05/17 11:20:15;;;;;;;14.23;13.43;;;;;;;;;;4997556;28;20066;-61
2023/05/17 11:23:06;;;;;;;15.07;14.18;;;;;;;;;;5001767;28;20038;-60
2023/05/17 11:25:37;;;;;;;15.02;14.13;;;;;;;;;;4999817;28;20145;-53
2023/05/17 11:28:16;;;;;;;;;;;;;;;;;;4993994;28;20112;-54
2023/05/17 11:30:46;;;;;;;17.80;16.80;;;;;;;;;;4998628;28;20295;-54
2023/05/17 11:33:12;;;;;;;15.60;14.70;;;;;;;;;;4994836;28;20073;-61
2023/05/17 11:35:38;;;;;;;16.80;15.80;;;;;;;;;;4992636;28;20269;-50
2023/05/17 11:38:18;;;;;;;18.20;17.17;;;;;;;;;;4997067;28;20077;-54
2023/05/17 11:40:46;;;;;;;21.10;19.90;;;;;;;;;;5002482;28;20217;-49
2023/05/17 11:43:12;;;;;;;15.45;14.55;;;;;;;;;;4995444;28;20046;-55
2023/05/17 11:45:52;;;;;;;20.35;19.20;;;;;;;;;;4998355;28;20096;-54
2023/05/17 11:48:20;;;;;;;23.15;21.95;;;;;;;;;;4993238;28;20026;-54
2023/05/17 11:50:48;;;;;;;16.13;15.23;;;;;;;;;;4993540;28;20100;-55
2023/05/17 11:53:14;;;;;;;29.75;28.08;;;;;;;;;;4973844;28;20037;-54
2023/05/17 11:55:43;;;;;;;28.02;26.42;;;;;;;;;;4991675;28;20030;-53
2023/05/17 11:58:11;;;;;;;27.23;25.65;;;;;;;;;;4993331;28;20724;-52
2023/05/17 12:00:40;;;;;;;30.13;28.52;;;;;;;;;;4995324;28;20038;-53
2023/05/17 12:03:15;;;;;;;28.85;27.35;;;;;;;;;;4996963;28;20111;-53
2023/05/17 12:05:41;;;;;;;28.65;27.10;;;;;;;;;;4997967;28;20038;-55
2023/05/17 12:08:06;;;;;;;27.88;26.38;;;;;;;;;;4995489;28;20713;-56
2023/05/17 12:10:33;;;;;;;22.88;21.67;;;;;;;;;;4998622;28;20180;-62
2023/05/17 12:12:58;;;;;;;29.55;27.75;;;;;;;;;;4998027;28;20037;-53
2023/05/17 12:15:25;;;;;;;29.73;28.15;;;;;;;;;;4994069;28;20041;-61
2023/05/17 12:17:52;;;;;;;25.20;23.88;;;;;;;;;;4993322;28;20045;-61
2023/05/17 12:20:17;;;;;;;24.50;23.13;;;;;;;;;;4992895;28;20204;-62
2023/05/17 12:22:53;;;;;;;28.27;26.77;;;;;;;;;;4996338;28;20544;-62
2023/05/17 12:25:19;;;;;;;30.88;29.27;;;;;;;;;;4998018;28;20026;-62
2023/05/17 12:27:45;;;;;;;30.35;28.35;;;;;;;;;;4995835;28;20125;-57
2023/05/17 12:30:14;;;;;;;21.83;20.63;;;;;;;;;;4993033;28;20125;-62
2023/05/17 12:32:40;;;;;;;20.80;19.60;;;;;;;;;;4994877;28;20109;-55
2023/05/17 12:35:05;;;;;;;19.88;18.77;;;;;;;;;;4992167;28;20109;-54
2023/05/17 12:37:31;;;;;;;22.05;20.85;;;;;;;;;;4997708;28;20041;-62
2023/05/17 12:40:00;;;;;;;26.75;25.35;;;;;;;;;;4993787;28;20038;-56
2023/05/17 12:42:26;;;;;;;25.27;23.95;;;;;;;;;;4992419;28;20042;-62
2023/05/17 12:44:51;;;;;;;29.83;28.25;;;;;;;;;;4997790;28;20045;-62
2023/05/17 12:47:16;;;;;;;24.95;23.55;;;;;;;;;;4997338;28;20046;-61
2023/05/17 12:49:53;;;;;;;26.65;24.95;;;;;;;;;;4997420;28;20030;-61
2023/05/17 12:52:18;;;;;;;25.70;24.33;;;;;;;;;;4995362;28;20034;-53
2023/05/17 12:54:45;;;;;;;22.48;21.27;;;;;;;;;;4997228;28;20067;-61
2023/05/17 12:57:14;;;;;;;24.58;23.27;;;;;;;;;;4999507;28;20439;-56
2023/05/17 12:59:51;;;;;;;28.42;26.88;;;;;;;;;;4992024;28;20120;-62
2023/05/17 13:02:18;;;;;;;27.77;25.27;;;;;;;;;;4992397;28;20052;-62
2023/05/17 13:04:45;;;;;;;27.60;26.17;;;;;;;;;;4999657;28;20033;-59
2023/05/17 13:07:11;;;;;;;28.88;27.38;;;;;;;;;;4991074;28;20050;-53
2023/05/17 13:09:46;;;;;;;29.50;27.75;;;;;;;;;;4998384;28;20029;-57
2023/05/17 13:12:18;;;;;;;23.40;22.15;;;;;;;;;;4995543;28;20125;-54
2023/05/17 13:14:46;;;;;;;26.67;25.27;;;;;;;;;;4997355;28;20042;-55
2023/05/17 13:17:35;;;;;;;24.25;22.95;;;;;;;;;;4975077;28;20076;-55
2023/05/17 13:20:01;;;;;;;24.20;22.92;;;;;;;;;;4992645;28;20042;-55
2023/05/17 13:22:26;;;;;;;29.38;27.88;;;;;;;;;;4995808;28;20341;-54
2023/05/17 13:24:52;;;;;;;28.35;26.75;;;;;;;;;;4979237;28;20040;-61
2023/05/17 13:27:17;;;;;;;28.67;27.15;;;;;;;;;;4973660;28;20080;-57
2023/05/17 13:29:43;;;;;;;23.17;21.88;;;;;;;;;;4992606;28;20034;-59
2023/05/17 13:32:10;;;;;;;25.20;23.70;;;;;;;;;;4995344;28;20042;-61
2023/05/17 13:34:36;;;;;;;21.35;20.17;;;;;;;;;;4993675;28;20097;-62
2023/05/17 13:37:01;;;;;;;22.98;21.63;;;;;;;;;;4992546;28;20575;-61
2023/05/17 13:39:27;;;;;;;26.85;25.45;;;;;;;;;;4993873;28;20034;-56
2023/05/17 13:41:52;;;;;;;25.90;24.50;;;;;;;;;;4993345;28;20618;-55
2023/05/17 13:44:18;;;;;;;20.00;18.90;;;;;;;;;;4993497;28;20039;-57
2023/05/17 13:46:43;;;;;;;24.85;23.55;;;;;;;;;;4995040;28;20148;-61
2023/05/17 13:49:08;;;;;;;20.17;19.08;;;;;;;;;;4992643;28;20056;-57
2023/05/17 13:51:36;;;;;;;19.88;18.77;;;;;;;;;;4998596;28;20038;-57
2023/05/17 13:54:02;;;;;;;21.17;19.98;;;;;;;;;;4992954;28;20042;-62
2023/05/17 13:56:30;;;;;;;22.05;20.75;;;;;;;;;;4994609;28;20349;-54
2023/05/17 13:58:55;;;;;;;27.17;25.55;;;;;;;;;;4992218;28;20044;-61
2023/05/17 14:01:21;;;;;;;26.85;25.45;;;;;;;;;;4994723;28;20030;-56
2023/05/17 14:03:46;;;;;;;20.85;19.67;;;;;;;;;;4996846;28;20026;-61
2023/05/17 14:06:12;;;;;;;29.17;27.38;;;;;;;;;;4995301;28;20042;-61
2023/05/17 14:08:37;;;;;;;22.40;21.00;;;;;;;;;;4994914;28;20670;-61
2023/05/17 14:11:03;;;;;;;18.75;17.65;;;;;;;;;;4996934;28;20123;-62
2023/05/17 14:13:28;;;;;;;26.10;24.65;;;;;;;;;;4999811;28;20191;-54
2023/05/17 14:15:53;;;;;;;22.67;21.48;;;;;;;;;;4997975;28;20652;-55
2023/05/17 14:18:19;;;;;;;22.08;20.88;;;;;;;;;;4997476;28;20661;-57
2023/05/17 14:20:45;;;;;;;21.13;19.92;;;;;;;;;;5001235;28;20044;-60
2023/05/17 14:23:11;;;;;;;20.52;19.38;;;;;;;;;;4996992;28;20185;-55